Time;durP1;ratioP1;P1;durP2;ratioP2;P2;SDS_P1;SDS_P2;PMS_P1;PMS_P2;Temp;Humidity;BMP_temperature;BMP_pressure;BME280_temperature;BME280_humidity;BME280_pressure;Samples;Min_cycle;Max_cycle;Signal;HPM_P1;HPM_P2
2021/12/24 00:01:01;;;;;;;10.70;4.10;;;;;;;-11.98;82.52;99382.44;6240542;23;20106;-77
2021/12/24 00:03:27;;;;;;;3.95;3.65;;;;;;;-12.00;82.27;99374.84;6165370;23;20023;-77
2021/12/24 00:05:54;;;;;;;4.70;4.30;;;;;;;-11.90;82.01;99391.88;6240827;23;20039;-78
2021/12/24 00:08:19;;;;;;;5.93;5.30;;;;;;;-11.89;82.54;99398.63;6242236;22;20035;-78
2021/12/24 00:10:50;;;;;;;4.78;3.45;;;;;;;-11.92;83.10;99388.47;6240479;23;20042;-78
2021/12/24 00:13:18;;;;;;;2.63;2.53;;;;;;;-12.03;82.81;99389.84;6240630;23;20020;-77
2021/12/24 00:36:41;;;;;;;7.57;6.97;;;;;;;-12.00;82.84;99387.41;6220742;23;20532;-76
2021/12/24 00:39:07;;;;;;;4.50;4.15;;;;;;;-11.95;82.41;99400.97;6218050;23;20016;-77
2021/12/24 00:41:34;;;;;;;3.65;3.45;;;;;;;-12.09;82.60;99381.28;6218247;23;20020;-77
2021/12/24 00:44:00;;;;;;;8.68;6.70;;;;;;;-11.99;82.63;99396.69;6243175;23;20020;-77
2021/12/24 00:46:26;;;;;;;5.13;4.18;;;;;;;-12.09;82.62;99371.22;6241761;23;20461;-78
2021/12/24 00:48:55;;;;;;;5.22;4.70;;;;;;;-12.06;82.69;99383.88;6242694;23;20027;-77
2021/12/24 00:51:32;;;;;;;6.13;5.55;;;;;;;-12.05;82.81;99368.84;6243578;23;20016;-77
2021/12/24 00:56:42;;;;;;;8.57;7.63;;;;;;;-11.88;81.94;99369.28;6244258;23;20020;-77
2021/12/24 00:59:08;;;;;;;7.57;6.72;;;;;;;-11.83;82.12;99372.75;6217234;23;20024;-78
2021/12/24 01:01:35;;;;;;;4.10;3.80;;;;;;;-11.86;82.16;99363.47;6244416;23;20020;-78
2021/12/24 01:04:01;;;;;;;2.75;2.58;;;;;;;-11.87;82.44;99366.81;6218399;23;20364;-79
2021/12/24 01:06:28;;;;;;;3.10;2.90;;;;;;;-11.86;83.06;99371.03;6244387;23;20026;-78
2021/12/24 01:08:57;;;;;;;6.05;5.57;;;;;;;-11.92;82.26;99359.97;6247620;23;20024;-78
2021/12/24 01:11:27;;;;;;;4.28;3.97;;;;;;;-11.99;82.62;99351.41;6243665;23;20087;-77
2021/12/24 01:13:54;;;;;;;5.50;3.33;;;;;;;-11.95;82.40;99354.84;6193254;23;20039;-77
2021/12/24 01:16:30;;;;;;;4.85;4.43;;;;;;;-11.94;82.75;99354.06;6216581;23;20484;-77
2021/12/24 01:24:15;;;;;;;4.97;4.57;;;;;;;-11.95;82.75;99329.69;6246164;23;20030;-78
2021/12/24 01:29:42;;;;;;;5.80;5.35;;;;;;;-11.89;83.22;99338.25;6242727;23;20376;-77
2021/12/24 01:42:52;;;;;;;7.95;7.13;;;;;;;-11.94;83.18;99328.91;6217462;23;20022;-78
2021/12/24 01:45:27;;;;;;;6.53;5.50;;;;;;;-11.90;83.02;99331.50;6166965;23;20127;-78
2021/12/24 01:47:55;;;;;;;6.80;5.32;;;;;;;-12.03;82.39;99316.06;6220711;23;20024;-78
2021/12/24 01:50:21;;;;;;;4.90;4.35;;;;;;;-12.08;82.60;99313.47;6194762;23;20024;-78
2021/12/24 01:52:49;;;;;;;4.30;3.90;;;;;;;-12.03;82.20;99314.41;6191921;23;20020;-78
2021/12/24 01:55:16;;;;;;;7.05;6.43;;;;;;;-11.89;81.92;99334.88;6242437;23;20062;-78
2021/12/24 01:57:42;;;;;;;6.57;6.07;;;;;;;-11.88;82.23;99329.91;6242598;23;20376;-78
2021/12/24 02:00:13;;;;;;;5.72;5.28;;;;;;;-11.94;82.75;99339.78;6245638;23;20020;-77
2021/12/24 02:02:40;;;;;;;3.30;3.10;;;;;;;-11.97;81.95;99314.56;6245850;23;20024;-78
2021/12/24 02:05:07;;;;;;;7.03;6.32;;;;;;;-11.98;82.14;99335.50;6194845;23;20356;-78
2021/12/24 02:07:33;;;;;;;3.40;3.20;;;;;;;-11.98;81.78;99327.97;6192019;23;20031;-77
2021/12/24 02:09:59;;;;;;;5.57;4.60;;;;;;;-11.91;82.29;99313.88;6242305;23;20019;-77
2021/12/24 02:12:26;;;;;;;3.72;3.53;;;;;;;-11.87;81.75;99319.00;6216408;23;20479;-78
2021/12/24 02:14:56;;;;;;;6.10;5.50;;;;;;;-11.81;81.03;99320.84;6192266;23;20020;-78
2021/12/24 02:28:21;;;;;;;4.57;4.18;;;;;;;-12.04;81.21;99297.59;6241915;23;20016;-76
2021/12/24 02:30:48;;;;;;;6.85;6.03;;;;;;;-12.01;81.38;99289.31;6193624;23;20031;-76
2021/12/24 02:33:15;;;;;;;6.15;5.47;;;;;;;-12.11;81.16;99268.13;6241178;23;20058;-79
2021/12/24 02:35:41;;;;;;;4.03;3.55;;;;;;;-12.07;81.17;99277.41;6216555;23;20020;-77
2021/12/24 02:38:07;;;;;;;8.00;7.22;;;;;;;-12.06;80.76;99283.31;6216070;23;20012;-76
2021/12/24 02:40:34;;;;;;;7.28;4.85;;;;;;;-12.16;81.61;99264.63;6191243;23;20082;-76
2021/12/24 02:43:01;;;;;;;6.55;5.95;;;;;;;-12.12;81.14;99273.94;6191066;23;20026;-77
2021/12/24 02:45:28;;;;;;;10.13;7.40;;;;;;;-12.07;81.31;99276.59;6191054;23;20465;-76
2021/12/24 02:56:04;;;;;;;7.00;5.68;;;;;;;-11.95;80.77;99266.81;6243292;22;20042;-77
2021/12/24 02:58:41;;;;;;;7.13;6.40;;;;;;;-11.94;81.05;99269.34;6215611;23;20106;-79
2021/12/24 03:01:09;;;;;;;10.30;7.38;;;;;;;-11.93;80.88;99266.03;6240990;23;20085;-78
2021/12/24 03:03:35;;;;;;;10.30;6.63;;;;;;;-11.89;80.96;99252.72;6241841;23;20150;-77
2021/12/24 03:06:01;;;;;;;6.82;4.85;;;;;;;-11.89;80.73;99250.22;6216027;23;20020;-76
2021/12/24 03:08:27;;;;;;;7.55;6.68;;;;;;;-11.83;81.41;99247.84;6242730;23;20020;-77
2021/12/24 03:10:55;;;;;;;7.72;6.68;;;;;;;-11.82;80.95;99234.44;6215471;23;20457;-78
2021/12/24 03:13:22;;;;;;;8.32;6.63;;;;;;;-11.81;80.95;99241.16;6215921;23;20448;-78
2021/12/24 03:15:51;;;;;;;10.27;9.27;;;;;;;-11.79;81.31;99242.06;6190829;23;20020;-77
2021/12/24 03:18:24;;;;;;;5.93;4.55;;;;;;;-11.82;81.36;99234.44;6240958;23;20016;-77
2021/12/24 03:20:58;;;;;;;10.07;7.50;;;;;;;-11.75;81.02;99245.50;6215379;23;20035;-77
2021/12/24 03:26:21;;;;;;;12.90;8.15;;;;;;;-11.83;81.57;99225.19;6134114;22;20030;-77
2021/12/24 03:28:48;;;;;;;7.93;7.13;;;;;;;-11.76;81.11;99234.59;6241252;23;20519;-77
2021/12/24 03:31:13;;;;;;;10.35;6.53;;;;;;;-11.76;81.78;99234.59;6240740;23;20020;-78
2021/12/24 03:33:40;;;;;;;6.70;5.28;;;;;;;-11.74;81.60;99243.00;6224977;23;20032;-79
2021/12/24 03:36:06;;;;;;;4.40;4.07;;;;;;;-11.73;81.10;99243.88;6250469;23;20099;-79
2021/12/24 03:38:34;;;;;;;9.25;7.30;;;;;;;-11.77;81.73;99237.91;6252032;23;20020;-80
2021/12/24 03:41:01;;;;;;;11.45;7.07;;;;;;;-11.70;81.08;99249.78;6228310;23;20020;-80
2021/12/24 03:43:27;;;;;;;10.88;6.90;;;;;;;-11.69;81.46;99243.09;6173369;23;20020;-80
2021/12/24 03:48:26;;;;;;;10.20;6.13;;;;;;;-11.70;80.88;99234.69;6250370;23;20020;-80
2021/12/24 03:51:03;;;;;;;4.95;4.55;;;;;;;-11.77;81.06;99232.88;6251259;23;20031;-81
2021/12/24 03:56:15;;;;;;;7.07;5.05;;;;;;;-11.75;81.30;99232.94;6244978;23;20023;-79
2021/12/24 03:58:42;;;;;;;3.78;3.47;;;;;;;-11.82;82.08;99238.63;6244142;23;20027;-79
2021/12/24 04:01:29;;;;;;;9.07;6.93;;;;;;;-11.86;82.15;99224.28;6228591;23;20465;-81
2021/12/24 04:04:28;;;;;;;8.15;7.30;;;;;;;-11.98;81.23;99203.88;6248924;23;20024;-78
2021/12/24 04:07:27;;;;;;;5.22;4.75;;;;;;;-11.93;81.71;99235.84;6187298;23;20020;-80
2021/12/24 04:10:36;;;;;;;6.32;5.75;;;;;;;-11.91;81.99;99231.69;6246155;23;20059;-81
2021/12/24 04:13:23;;;;;;;6.32;5.70;;;;;;;-11.98;82.56;99219.81;6270903;23;20004;-81
2021/12/24 04:15:49;;;;;;;5.68;4.85;;;;;;;-11.96;81.91;99220.69;6245594;23;20024;-81
2021/12/24 04:18:35;;;;;;;5.85;4.45;;;;;;;-11.99;82.16;99225.66;6270602;23;20016;-81
2021/12/24 04:26:33;;;;;;;3.88;3.58;;;;;;;-11.91;82.50;99209.06;6266636;23;20036;-82
2021/12/24 04:29:00;;;;;;;9.65;7.30;;;;;;;-11.79;82.52;99211.88;6241122;23;20046;-82
2021/12/24 04:31:40;;;;;;;5.95;5.28;;;;;;;-11.78;81.41;99200.16;6212966;23;20023;-80
2021/12/24 04:34:37;;;;;;;6.47;5.88;;;;;;;-11.76;82.40;99193.47;6244895;23;20031;-81
2021/12/24 05:01:16;;;;;;;8.82;6.25;;;;;;;-11.14;79.67;99167.09;6241652;23;20059;-82
2021/12/24 05:04:49;;;;;;;7.55;6.90;;;;;;;-11.20;79.94;99146.81;6198776;23;20024;-82
2021/12/24 05:07:43;;;;;;;5.60;5.03;;;;;;;-11.11;79.91;99172.16;6265417;23;20047;-81
2021/12/24 05:10:03;;;;;;;6.72;6.22;;;;;;;-11.11;80.04;99162.94;6243789;23;20020;-81
2021/12/24 05:12:34;;;;;;;7.13;6.43;;;;;;;-11.07;79.67;99168.91;6264564;23;20068;-80
2021/12/24 05:15:04;;;;;;;6.33;5.73;;;;;;;-11.04;80.18;99173.16;6265100;23;20024;-82
2021/12/24 05:23:36;;;;;;;6.45;5.95;;;;;;;-11.13;79.61;99148.63;6267356;23;20010;-82
2021/12/24 05:26:03;;;;;;;4.63;4.22;;;;;;;-11.01;80.01;99160.59;6267827;23;20064;-82
2021/12/24 05:28:29;;;;;;;5.20;4.63;;;;;;;-11.11;80.01;99141.94;6268564;23;20008;-81
2021/12/24 05:30:56;;;;;;;10.00;7.07;;;;;;;-11.06;79.77;99158.00;6191115;23;20071;-81
2021/12/24 05:33:22;;;;;;;5.45;4.95;;;;;;;-11.04;80.18;99166.44;6239483;23;20031;-82
2021/12/24 05:35:51;;;;;;;7.35;6.65;;;;;;;-11.07;80.30;99163.88;6239447;23;20087;-80
2021/12/24 05:38:17;;;;;;;10.32;8.52;;;;;;;-10.99;79.51;99158.97;6264203;23;20032;-82
2021/12/24 05:40:45;;;;;;;7.25;5.88;;;;;;;-11.00;80.33;99155.59;6214675;23;20024;-82
2021/12/24 05:43:11;;;;;;;6.45;5.95;;;;;;;-11.01;79.96;99153.91;6237999;23;20032;-81
2021/12/24 05:45:37;;;;;;;8.10;7.30;;;;;;;-10.99;79.84;99154.78;6238839;23;20016;-81
2021/12/24 05:48:26;;;;;;;4.88;4.47;;;;;;;-11.00;80.08;99145.53;6234886;23;20077;-80
2021/12/24 05:51:00;;;;;;;5.70;5.20;;;;;;;-10.94;79.74;99149.81;6231044;23;20020;-80
2021/12/24 05:53:45;;;;;;;10.88;7.88;;;;;;;-10.92;80.12;99148.16;6234584;23;20016;-81
2021/12/24 05:56:15;;;;;;;10.93;7.93;;;;;;;-10.99;79.50;99137.13;6205375;23;20284;-80
2021/12/24 05:58:45;;;;;;;8.77;6.75;;;;;;;-10.93;80.20;99147.34;6231682;23;20318;-81
2021/12/24 06:01:11;;;;;;;8.38;7.50;;;;;;;-10.90;80.17;99137.31;6239218;23;20042;-81
2021/12/24 06:03:47;;;;;;;8.02;7.10;;;;;;;-10.86;79.40;99134.03;6265460;23;20024;-80
2021/12/24 06:06:13;;;;;;;6.88;6.25;;;;;;;-10.95;79.36;99131.34;6212349;23;20067;-81
2021/12/24 06:08:40;;;;;;;7.13;6.53;;;;;;;-10.82;79.44;99148.38;6263940;23;20008;-83
2021/12/24 06:11:06;;;;;;;4.25;3.90;;;;;;;-10.77;80.05;99154.38;6163272;23;20016;-81
2021/12/24 06:13:33;;;;;;;6.20;5.28;;;;;;;-10.77;78.59;99141.75;6237189;23;20011;-83
2021/12/24 06:15:59;;;;;;;6.15;5.57;;;;;;;-10.76;78.65;99145.97;6208225;23;20027;-82
2021/12/24 06:18:29;;;;;;;7.47;6.70;;;;;;;-10.75;78.85;99145.16;6229357;23;20051;-80
2021/12/24 06:20:57;;;;;;;7.03;6.43;;;;;;;-10.68;78.76;99152.00;6202765;23;20024;-80
2021/12/24 06:23:24;;;;;;;5.10;4.70;;;;;;;-10.71;78.93;99139.34;6257171;23;20050;-82
2021/12/24 06:25:55;;;;;;;9.45;8.48;;;;;;;-10.63;78.98;99149.53;6271553;22;20035;-82
2021/12/24 06:28:22;;;;;;;5.65;5.20;;;;;;;-10.64;78.86;99148.72;6273167;22;20008;-83
2021/12/24 06:30:48;;;;;;;4.63;4.22;;;;;;;-10.61;78.78;99156.34;6246177;23;20383;-79
2021/12/24 06:33:15;;;;;;;7.43;5.18;;;;;;;-10.68;78.01;99119.25;6264292;23;20008;-81
2021/12/24 06:35:42;;;;;;;9.50;5.85;;;;;;;-10.61;78.56;99146.25;6193319;23;20047;-82
2021/12/24 06:38:08;;;;;;;7.90;7.18;;;;;;;-10.54;78.06;99166.53;6269464;22;20011;-82
2021/12/24 06:40:34;;;;;;;6.97;5.35;;;;;;;-10.59;78.28;99154.69;6214266;23;20007;-83
2021/12/24 06:43:02;;;;;;;4.90;4.55;;;;;;;-10.55;78.47;99152.19;6194872;23;20016;-82
2021/12/24 06:45:28;;;;;;;5.57;5.10;;;;;;;-10.46;77.40;99162.44;6266340;22;20027;-82
2021/12/24 06:47:55;;;;;;;8.18;6.22;;;;;;;-10.53;77.24;99143.00;6244420;22;20020;-82
2021/12/24 06:50:22;;;;;;;4.72;4.40;;;;;;;-10.44;76.99;99148.19;6245080;22;20020;-85
2021/12/24 06:52:49;;;;;;;7.63;6.88;;;;;;;-10.43;76.90;99149.88;6270129;22;20016;-81
2021/12/24 06:55:17;;;;;;;4.63;4.32;;;;;;;-10.35;77.21;99171.03;6244849;23;20000;-82
2021/12/24 06:57:47;;;;;;;4.22;3.95;;;;;;;-10.33;77.43;99169.38;6244658;23;20016;-80
2021/12/24 07:00:20;;;;;;;6.93;6.30;;;;;;;-10.30;77.47;99166.91;6243707;23;20008;-82
2021/12/24 07:02:46;;;;;;;7.35;6.65;;;;;;;-10.42;77.48;99154.09;6234130;23;20016;-82
2021/12/24 07:05:14;;;;;;;5.03;4.53;;;;;;;-10.33;78.31;99167.72;6231322;23;20020;-80
2021/12/24 07:07:40;;;;;;;5.65;5.22;;;;;;;-10.34;78.62;99155.09;6204127;23;20028;-82
2021/12/24 07:10:07;;;;;;;6.53;5.80;;;;;;;-10.35;78.15;99168.53;6240273;23;20031;-83
2021/12/24 07:12:33;;;;;;;4.68;4.38;;;;;;;-10.36;79.94;99170.19;6266097;23;20016;-82
2021/12/24 07:15:00;;;;;;;4.72;4.38;;;;;;;-10.37;78.92;99165.13;6239586;23;20076;-83
2021/12/24 07:17:26;;;;;;;9.07;5.70;;;;;;;-10.37;78.51;99167.66;6267791;23;20004;-83
2021/12/24 07:19:53;;;;;;;6.25;5.72;;;;;;;-10.34;78.60;99161.00;6241178;23;20083;-82
2021/12/24 07:22:20;;;;;;;6.25;5.78;;;;;;;-10.39;77.86;99142.41;6219959;23;20016;-82
2021/12/24 07:24:46;;;;;;;9.40;8.43;;;;;;;-10.36;77.77;99157.59;6269605;23;20020;-82
2021/12/24 07:27:12;;;;;;;6.70;5.35;;;;;;;-10.35;78.19;99145.81;6217187;23;20004;-82
2021/12/24 07:29:39;;;;;;;5.55;5.05;;;;;;;-10.25;77.47;99160.28;6191166;23;20035;-82
2021/12/24 07:35:44;;;;;;;5.70;5.07;;;;;;;-10.47;78.06;99133.03;6262915;23;20019;-82
2021/12/24 07:38:13;;;;;;;6.18;5.68;;;;;;;-10.27;77.86;99166.97;6266305;23;20047;-81
2021/12/24 07:40:43;;;;;;;7.22;6.13;;;;;;;-10.27;77.58;99161.91;6264245;23;20093;-82
2021/12/24 07:43:09;;;;;;;8.52;6.30;;;;;;;-10.25;77.18;99152.72;6267379;23;20016;-81
2021/12/24 07:45:38;;;;;;;7.35;6.75;;;;;;;-10.39;77.10;99127.28;6268253;22;20024;-84
2021/12/24 07:48:11;;;;;;;5.72;5.22;;;;;;;-10.23;77.66;99148.53;6268881;23;20011;-83
2021/12/24 07:53:06;;;;;;;5.05;4.65;;;;;;;-10.23;75.95;99140.97;6264752;22;20020;-83
2021/12/24 07:55:34;;;;;;;7.22;6.53;;;;;;;-10.19;76.88;99135.16;6265473;23;20453;-82
2021/12/24 07:58:01;;;;;;;6.10;5.63;;;;;;;-10.04;75.98;99155.53;6219033;22;20024;-83
2021/12/24 10:39:36;;;;;;;;;;;;;;;-9.03;75.48;99032.25;6259721;22;20438;-76
2021/12/24 10:42:05;;;;;;;7.45;6.57;;;;;;;-9.03;75.69;99034.75;6245947;22;20360;-76
2021/12/24 10:44:36;;;;;;;6.60;6.00;;;;;;;-8.98;75.59;99028.06;6272386;22;20016;-76
2021/12/24 10:47:09;;;;;;;12.77;11.30;;;;;;;-9.00;75.91;99022.16;6272466;22;20044;-76
2021/12/24 10:55:03;;;;;;;8.50;5.95;;;;;;;-9.14;76.28;99014.44;6247964;22;20015;-76
2021/12/24 10:57:30;;;;;;;9.02;8.13;;;;;;;-9.09;76.15;99025.44;6248583;22;20040;-76
2021/12/24 11:00:13;;;;;;;7.68;6.70;;;;;;;-9.08;76.39;99019.53;6271848;22;20095;-76
2021/12/24 11:02:39;;;;;;;10.35;8.48;;;;;;;-9.01;75.80;99015.41;6246993;22;20019;-76
2021/12/24 11:05:09;;;;;;;9.27;7.80;;;;;;;-9.04;75.96;99017.91;6194444;22;20016;-77
2021/12/24 11:07:36;;;;;;;10.93;9.90;;;;;;;-9.03;76.07;99022.13;6219412;22;20015;-74
2021/12/24 11:13:56;;;;;;;4.75;4.30;;;;;;;-9.09;75.64;98992.56;6245667;22;20106;-74
2021/12/24 11:16:25;;;;;;;13.38;9.18;;;;;;;-9.05;75.88;98993.44;6273251;22;20069;-74
2021/12/24 11:18:56;;;;;;;8.27;7.40;;;;;;;-9.09;76.16;99004.34;6246605;22;20016;-74
2021/12/24 11:21:23;;;;;;;;;;;;;;;-9.13;75.81;98995.09;6276592;22;20019;-74
2021/12/24 11:23:49;;;;;;;8.63;7.72;;;;;;;-9.10;75.78;99002.69;6245739;22;19918;-74
2021/12/24 11:26:19;;;;;;;7.38;6.50;;;;;;;-9.07;75.96;99006.09;6246444;22;20066;-74
2021/12/24 11:28:45;;;;;;;8.82;7.45;;;;;;;-9.16;76.20;98998.41;6274905;22;20063;-74
2021/12/24 11:31:14;;;;;;;9.43;7.97;;;;;;;-9.14;76.20;98998.44;6275855;22;20025;-74
2021/12/24 11:33:42;;;;;;;12.30;11.10;;;;;;;-9.16;76.03;98995.88;6174971;22;20110;-74
2021/12/24 11:36:11;;;;;;;10.02;7.20;;;;;;;-9.16;76.29;99000.09;6225257;22;20015;-74
2021/12/24 11:38:45;;;;;;;12.68;10.70;;;;;;;-9.21;76.40;99002.56;6277114;22;20022;-74
2021/12/24 11:41:13;;;;;;;7.32;6.50;;;;;;;-9.22;76.56;99000.03;6226038;22;20019;-74
2021/12/24 11:43:47;;;;;;;10.13;9.07;;;;;;;-9.20;76.55;98998.38;6248140;22;20019;-76
2021/12/24 11:46:16;;;;;;;8.63;7.03;;;;;;;-9.26;76.47;98978.94;6232573;22;20498;-75
2021/12/24 11:48:43;;;;;;;10.10;8.70;;;;;;;-9.20;76.42;98996.69;6230499;22;20106;-74
2021/12/24 11:51:21;;;;;;;9.15;8.25;;;;;;;-9.22;76.72;98995.81;6255780;22;20015;-75
2021/12/24 11:53:47;;;;;;;10.10;8.77;;;;;;;-9.31;76.39;98974.69;6284018;22;20015;-75
2021/12/24 11:56:20;;;;;;;12.05;9.02;;;;;;;-9.22;77.05;99000.03;6252805;22;20077;-75
2021/12/24 11:58:52;;;;;;;9.35;8.45;;;;;;;-9.23;77.10;98986.56;6218314;22;20020;-74
2021/12/24 12:01:19;;;;;;;15.73;13.93;;;;;;;-9.25;76.78;98987.38;6195014;22;20024;-75
2021/12/24 12:03:57;;;;;;;14.10;11.52;;;;;;;-9.27;76.78;98989.03;6270582;22;20372;-75
2021/12/24 12:06:23;;;;;;;8.60;7.57;;;;;;;-9.23;76.79;98994.16;6194731;22;20026;-75
2021/12/24 12:08:56;;;;;;;9.70;8.52;;;;;;;-9.24;77.26;99000.03;6220215;22;20015;-74
2021/12/24 12:11:31;;;;;;;6.95;6.25;;;;;;;-9.27;77.47;98989.03;6221067;22;20022;-76
2021/12/24 12:14:21;;;;;;;10.45;9.40;;;;;;;-9.25;77.09;99008.44;6193731;22;20042;-75
2021/12/24 12:16:53;;;;;;;13.75;6.75;;;;;;;-9.26;77.28;98993.28;6244612;22;20075;-75
2021/12/24 12:19:46;;;;;;;9.73;7.75;;;;;;;-9.23;77.38;98999.19;6220479;22;20400;-75
2021/12/24 12:22:47;;;;;;;14.07;10.50;;;;;;;-9.24;76.97;99004.22;6272530;22;20027;-75
2021/12/24 12:25:29;;;;;;;12.27;9.02;;;;;;;-9.31;77.29;98995.75;6244373;22;20024;-76
2021/12/24 12:27:57;;;;;;;12.13;7.50;;;;;;;-9.31;77.65;99002.47;6243811;22;20070;-75
2021/12/24 12:30:29;;;;;;;9.02;8.13;;;;;;;-9.31;77.53;98997.41;6244871;22;20043;-76
2021/12/24 12:33:11;;;;;;;10.80;8.10;;;;;;;-9.26;77.11;98995.78;6247256;22;20554;-75
2021/12/24 12:35:50;;;;;;;6.72;6.07;;;;;;;-9.26;76.93;98998.31;6223416;22;20023;-74
2021/12/24 12:38:28;;;;;;;11.68;9.32;;;;;;;-9.30;77.56;98983.97;6221467;22;20570;-75
2021/12/24 12:41:14;;;;;;;9.90;8.40;;;;;;;-9.26;76.93;99003.38;6247892;22;20019;-75
2021/12/24 12:43:40;;;;;;;10.00;8.68;;;;;;;-9.27;77.22;99005.06;6221674;22;20123;-76
2021/12/24 12:46:06;;;;;;;8.95;6.82;;;;;;;-9.31;77.98;98997.41;6225496;22;20043;-76
2021/12/24 12:48:43;;;;;;;7.95;7.05;;;;;;;-9.38;77.92;98988.06;6249384;22;20069;-76
2021/12/24 12:51:09;;;;;;;7.75;5.45;;;;;;;-9.36;78.28;98996.53;6174641;22;20015;-78
2021/12/24 12:53:37;;;;;;;8.38;7.45;;;;;;;-9.38;78.33;99004.09;6198784;22;20336;-75
2021/12/24 12:56:20;;;;;;;9.13;7.43;;;;;;;-9.41;78.31;99003.19;6249565;22;20027;-76
2021/12/24 12:58:57;;;;;;;6.60;6.00;;;;;;;-9.59;78.41;98994.63;6247536;22;20455;-77
2021/12/24 13:01:25;;;;;;;9.80;6.20;;;;;;;-9.48;78.44;98981.25;6252228;22;20016;-77
2021/12/24 13:03:57;;;;;;;7.72;7.03;;;;;;;-9.47;78.43;98993.03;6198991;22;20016;-77
2021/12/24 13:06:24;;;;;;;7.90;6.78;;;;;;;-9.55;78.43;99001.38;6248145;22;20020;-77
2021/12/24 13:08:54;;;;;;;8.55;7.70;;;;;;;-9.55;79.05;99000.53;6173993;22;20547;-77
2021/12/24 13:11:20;;;;;;;10.38;8.82;;;;;;;-9.54;78.71;98999.69;6199164;22;20034;-77
2021/12/24 13:13:57;;;;;;;15.82;13.90;;;;;;;-9.55;78.99;98992.94;6273154;22;20007;-79
2021/12/24 13:16:35;;;;;;;13.93;11.48;;;;;;;-9.56;78.89;98997.19;6220908;22;20562;-77
2021/12/24 13:24:53;;;;;;;9.57;7.90;;;;;;;-9.62;79.07;98959.22;6272721;22;20019;-77
2021/12/24 13:27:25;;;;;;;20.30;13.55;;;;;;;-9.64;78.88;98968.47;6196156;22;20023;-76
2021/12/24 13:30:16;;;;;;;15.80;10.40;;;;;;;-9.58;78.68;98978.63;6245506;22;20471;-76
2021/12/24 13:32:54;;;;;;;11.60;9.00;;;;;;;-9.60;78.58;98975.25;6272698;22;20011;-76
2021/12/24 13:35:28;;;;;;;17.88;12.43;;;;;;;-9.61;78.60;98965.97;6273530;22;20023;-77
2021/12/24 13:37:54;;;;;;;15.27;13.48;;;;;;;-9.61;78.58;98948.28;6273102;22;20122;-76
2021/12/24 13:40:22;;;;;;;16.73;14.13;;;;;;;-9.60;78.47;98971.88;6273017;22;20085;-75
2021/12/24 13:42:53;;;;;;;14.15;10.50;;;;;;;-9.63;78.64;98972.69;6220641;22;20082;-75
2021/12/24 13:45:35;;;;;;;9.05;7.80;;;;;;;-9.65;78.69;98976.03;6245697;22;20371;-76
2021/12/24 13:48:28;;;;;;;15.50;12.00;;;;;;;-9.76;78.93;98943.09;6173328;22;20490;-75
2021/12/24 13:54:33;;;;;;;11.20;9.15;;;;;;;-9.66;78.78;98965.09;6198146;22;20028;-76
2021/12/24 13:57:38;;;;;;;15.40;11.85;;;;;;;-9.66;78.83;98951.63;6246971;22;20023;-76
2021/12/24 14:00:08;;;;;;;17.33;10.90;;;;;;;-9.65;78.73;98961.72;6274626;22;20023;-77
2021/12/24 14:02:33;;;;;;;14.50;11.73;;;;;;;-9.64;78.63;98965.94;6246996;22;20027;-74
2021/12/24 14:05:01;;;;;;;24.95;10.43;;;;;;;-9.66;78.87;98962.56;6222140;22;20573;-75
2021/12/24 14:07:28;;;;;;;11.70;9.70;;;;;;;-9.61;78.48;98971.00;6172946;22;20019;-75
2021/12/24 14:09:56;;;;;;;18.20;15.90;;;;;;;-9.70;78.50;98944.84;6147141;22;20020;-75
2021/12/24 14:12:26;;;;;;;13.40;8.25;;;;;;;-9.62;78.39;98964.25;6248166;22;20015;-74
2021/12/24 14:15:07;;;;;;;14.15;10.82;;;;;;;-9.61;78.28;98955.03;6273727;22;20035;-75
2021/12/24 14:18:09;;;;;;;18.25;13.35;;;;;;;-9.65;78.40;98931.41;6227718;22;20019;-74
2021/12/24 14:21:00;;;;;;;20.13;14.48;;;;;;;-9.61;78.50;98948.28;6229987;22;20026;-74
2021/12/24 14:23:21;;;;;;;13.05;10.48;;;;;;;-9.63;78.45;98939.88;6261022;22;20026;-74
2021/12/24 14:25:57;;;;;;;14.57;10.90;;;;;;;-9.60;77.94;98937.38;6262201;22;20069;-74
2021/12/24 14:28:24;;;;;;;13.13;9.88;;;;;;;-9.59;78.37;98933.19;6291679;22;20020;-74
2021/12/24 14:31:10;;;;;;;17.70;13.32;;;;;;;-9.60;78.52;98926.44;6291613;22;20041;-75
2021/12/24 14:33:38;;;;;;;16.27;12.27;;;;;;;-9.63;78.79;98929.78;6260685;22;20012;-75
2021/12/24 14:36:15;;;;;;;16.13;12.68;;;;;;;-9.60;78.63;98927.28;6183030;22;20031;-73
2021/12/24 14:38:44;;;;;;;11.95;9.68;;;;;;;-9.69;78.67;98909.53;6180997;22;20031;-75
2021/12/24 14:41:31;;;;;;;21.58;17.05;;;;;;;-9.71;78.20;98888.44;6206028;22;20034;-75
2021/12/24 14:43:57;;;;;;;13.55;10.05;;;;;;;-9.72;77.81;98886.78;6201073;22;20019;-75
2021/12/24 14:46:37;;;;;;;17.00;11.55;;;;;;;-9.54;78.17;98909.66;6251271;22;20016;-74
2021/12/24 14:49:05;;;;;;;15.02;10.65;;;;;;;-9.55;78.23;98890.28;6177998;22;20094;-74
2021/12/24 14:52:06;;;;;;;13.85;11.70;;;;;;;-9.54;78.40;98897.03;6154276;22;20023;-75
2021/12/24 14:55:08;;;;;;;13.70;11.98;;;;;;;-9.54;78.12;98897.03;6251868;22;20475;-74
2021/12/24 14:57:59;;;;;;;13.65;11.77;;;;;;;-9.53;77.95;98878.53;6201749;22;20302;-74
2021/12/24 15:00:47;;;;;;;22.45;14.25;;;;;;;-9.52;78.35;98892.84;6226388;22;20024;-74
2021/12/24 15:03:23;;;;;;;13.52;7.97;;;;;;;-9.53;78.04;98891.16;6224225;22;20091;-76
2021/12/24 15:06:20;;;;;;;20.05;12.52;;;;;;;-9.53;78.52;98883.59;6227358;22;20023;-74
2021/12/24 15:08:47;;;;;;;21.90;17.10;;;;;;;-9.60;78.10;98879.31;6224648;22;20019;-79
2021/12/24 15:11:17;;;;;;;13.00;11.30;;;;;;;-9.58;78.28;98877.63;6223502;22;20027;-77
2021/12/24 15:13:57;;;;;;;13.88;9.88;;;;;;;-9.65;78.63;98878.41;6248058;22;20058;-76
2021/12/24 15:16:35;;;;;;;15.68;12.00;;;;;;;-9.66;78.39;98861.59;6221577;22;20073;-76
2021/12/24 15:19:02;;;;;;;16.35;10.48;;;;;;;-9.61;78.17;98880.13;6247807;22;20042;-76
2021/12/24 15:21:29;;;;;;;22.17;16.58;;;;;;;-9.62;78.26;98877.59;6272578;22;20012;-76
2021/12/24 15:23:56;;;;;;;16.90;12.27;;;;;;;-9.63;78.29;98864.13;6219946;22;20019;-75
2021/12/24 15:26:22;;;;;;;11.23;9.75;;;;;;;-9.64;78.41;98870.00;6271972;22;20011;-76
2021/12/24 15:28:50;;;;;;;13.82;10.77;;;;;;;-9.62;77.54;98858.22;6219292;22;20015;-75
2021/12/24 15:31:17;;;;;;;14.35;11.18;;;;;;;-9.63;77.52;98838.88;6271751;22;20061;-75
2021/12/24 15:33:43;;;;;;;17.42;13.73;;;;;;;-9.64;77.76;98854.00;6271978;22;20043;-74
2021/12/24 15:36:09;;;;;;;14.75;9.48;;;;;;;-9.65;78.24;98860.72;6271441;22;20526;-75
2021/12/24 15:38:36;;;;;;;13.43;9.25;;;;;;;-9.66;77.98;98851.50;6271740;22;20020;-75
2021/12/24 15:41:02;;;;;;;18.27;14.05;;;;;;;-9.65;78.10;98837.19;6218807;22;20027;-75
2021/12/24 15:43:28;;;;;;;11.27;8.95;;;;;;;-9.65;77.62;98837.19;6271165;22;20015;-75
2021/12/24 15:45:55;;;;;;;8.48;7.60;;;;;;;-9.67;77.48;98847.25;6243479;22;20360;-75
2021/12/24 15:48:21;;;;;;;18.95;13.30;;;;;;;-9.69;78.04;98851.47;6245365;22;20023;-75
2021/12/24 15:50:47;;;;;;;8.95;7.88;;;;;;;-9.69;77.47;98836.31;6245064;22;20062;-75
2021/12/24 15:53:13;;;;;;;10.80;9.70;;;;;;;-9.72;76.78;98851.44;6271414;22;20011;-76
2021/12/24 15:55:40;;;;;;;11.45;9.27;;;;;;;-9.74;77.29;98844.66;6219340;22;20020;-77
2021/12/24 15:58:08;;;;;;;13.43;12.07;;;;;;;-9.73;77.17;98847.22;6170078;22;20439;-75
2021/12/24 16:00:36;;;;;;;7.97;7.18;;;;;;;-9.73;76.86;98834.59;6269538;22;20349;-75
2021/12/24 16:03:05;;;;;;;13.65;12.20;;;;;;;-9.71;76.61;98835.44;6243791;22;20110;-76
2021/12/24 16:05:34;;;;;;;13.38;9.80;;;;;;;-9.71;76.61;98837.97;6218839;22;20051;-76
2021/12/24 16:08:00;;;;;;;15.30;13.68;;;;;;;-9.77;75.97;98815.19;6195270;22;20210;-76
2021/12/24 16:10:26;;;;;;;10.80;8.90;;;;;;;-9.71;76.49;98832.06;6170178;22;20244;-77
2021/12/24 16:12:52;;;;;;;13.00;10.90;;;;;;;-9.67;75.99;98831.25;6244636;22;20043;-75
2021/12/24 16:15:18;;;;;;;14.77;12.35;;;;;;;-9.68;75.84;98820.31;6245836;22;20039;-76
2021/12/24 16:17:44;;;;;;;7.55;6.85;;;;;;;-9.70;75.65;98816.94;6197001;22;20480;-78
2021/12/24 16:20:12;;;;;;;10.10;9.05;;;;;;;-9.68;76.14;98816.94;6194637;22;20348;-75
2021/12/24 16:22:39;;;;;;;9.32;8.38;;;;;;;-9.69;75.95;98806.03;6220345;22;20023;-75
2021/12/24 16:25:05;;;;;;;11.55;7.40;;;;;;;-9.70;75.73;98811.03;6194075;22;20020;-77
2021/12/24 16:27:31;;;;;;;12.70;9.18;;;;;;;-9.71;76.14;98790.00;6219919;22;20042;-75
2021/12/24 16:29:59;;;;;;;9.85;7.40;;;;;;;-9.75;76.09;98785.75;6194953;22;20019;-75
2021/12/24 16:32:27;;;;;;;16.08;13.52;;;;;;;-9.96;76.36;98749.41;6244802;22;20023;-76